Amity, Georgia
Current Conditions -  °F | °C
As of 1:15 PM on Saturday 25 Oct 2014 (Local Time) from KHQU Reporting Station
Clear Clear  
Wind Chill: 22°   Ceiling: Unl
Heat Index: 22°   Visibility: 10mi
Dew Point: 11°   Wind: 6mph
Humidity: 49%   Direction: 310°NW
Pressure: 30.08"   Gusts: NA
Location:  33.7816°N, 82.4511°W
Report Text: KHQU 251715Z AUTO 31005KT 10SM CLR 22/11 A3008 RMK AO1 T02170105
Loading
Personal Weather Stations






























Interactive Weather Map
Tropical Storm Tracking
New forecast layout! Learn more

10-Day Weather Forecast

Advertisements
Track Severe Weather on mobile